createdAt,value
2022-08-17T15:34:41.711Z,12.40
2022-08-17T15:37:28.316Z,12.20
2022-08-17T15:40:11.719Z,13.20
2022-08-17T15:42:54.160Z,12.10
2022-08-17T15:45:36.061Z,11.60
2022-08-17T15:48:18.809Z,10.90
2022-08-17T15:51:01.173Z,11.80
2022-08-17T15:53:45.630Z,11.90
2022-08-17T15:56:28.772Z,13.00
2022-08-17T15:59:10.650Z,11.60
2022-08-17T16:03:13.943Z,12.80
2022-08-17T16:05:06.051Z,11.50
2022-08-17T16:07:53.605Z,10.40
2022-08-17T16:10:36.516Z,11.60
2022-08-17T16:13:19.657Z,11.70
2022-08-17T16:16:01.552Z,11.40
2022-08-17T16:18:43.753Z,11.10
2022-08-17T16:21:26.073Z,11.20
2022-08-17T16:24:13.618Z,12.20
2022-08-17T16:26:57.119Z,12.80
2022-08-17T16:29:40.392Z,18.50
2022-08-17T16:32:31.692Z,24.80
2022-08-17T16:35:18.681Z,25.50
2022-08-17T16:38:00.683Z,27.50
2022-08-17T16:40:42.879Z,23.30
2022-08-17T16:43:24.775Z,17.80
2022-08-17T16:46:06.671Z,21.70
2022-08-17T16:48:48.570Z,21.70
2022-08-17T16:51:31.486Z,16.00
2022-08-17T16:54:17.590Z,14.30
2022-08-17T16:56:59.630Z,15.70
2022-08-17T16:59:44.949Z,17.70
2022-08-17T17:02:34.428Z,15.30
2022-08-17T17:05:58.073Z,13.10
2022-08-17T17:08:48.588Z,12.40
2022-08-17T17:11:42.274Z,11.70
2022-08-17T17:14:32.054Z,11.10
2022-08-17T17:17:28.183Z,11.70
2022-08-17T17:20:18.373Z,11.20
2022-08-17T17:23:09.712Z,11.70
2022-08-17T17:26:03.772Z,12.00
2022-08-17T17:28:59.122Z,12.90
2022-08-17T17:32:21.225Z,13.30
2022-08-17T17:35:09.440Z,11.50
2022-08-17T17:37:57.407Z,12.20
2022-08-17T17:40:44.420Z,12.30
2022-08-17T17:43:38.931Z,12.00
2022-08-17T17:46:35.550Z,12.10
2022-08-17T17:49:18.717Z,12.10
2022-08-17T17:52:15.627Z,11.80
2022-08-17T17:55:28.496Z,12.30
2022-08-17T17:58:36.657Z,11.30
2022-08-17T18:01:30.776Z,12.70
2022-08-17T18:04:23.796Z,12.10
2022-08-17T18:07:25.046Z,12.40
2022-08-17T18:10:45.299Z,11.90
2022-08-17T18:13:43.825Z,12.40
2022-08-17T18:16:27.975Z,11.50
2022-08-17T18:19:15.918Z,12.90
2022-08-17T18:22:04.259Z,12.10
2022-08-17T18:24:56.119Z,12.90
2022-08-17T18:27:40.967Z,12.30
2022-08-17T18:30:29.064Z,13.00
2022-08-17T18:33:26.690Z,11.10
2022-08-17T18:36:09.373Z,12.30
2022-08-17T18:39:12.170Z,12.30
2022-08-17T18:41:57.153Z,11.90
2022-08-17T18:44:39.128Z,12.30
2022-08-17T18:47:26.242Z,13.10
2022-08-17T18:50:43.875Z,12.10
2022-08-17T18:53:30.384Z,13.10
2022-08-17T18:56:17.922Z,12.60
2022-08-17T18:59:10.082Z,12.80
2022-08-17T19:02:10.066Z,13.60
2022-08-17T19:05:17.458Z,13.30
2022-08-17T19:08:18.143Z,14.20
2022-08-17T19:11:07.669Z,15.90
2022-08-17T19:14:02.370Z,15.60
2022-08-17T19:16:54.707Z,13.80
2022-08-17T19:20:06.399Z,14.80
2022-08-17T19:22:58.960Z,15.10
2022-08-17T19:25:50.261Z,15.00
2022-08-17T19:29:02.879Z,16.00
2022-08-17T19:31:48.155Z,15.60
2022-08-17T19:34:34.449Z,16.60
2022-08-17T19:37:43.382Z,18.10
2022-08-17T19:41:05.294Z,19.50
2022-08-17T19:44:17.930Z,22.60
2022-08-17T19:47:43.091Z,19.40
2022-08-17T19:50:56.371Z,20.90
2022-08-17T19:54:06.612Z,22.60
2022-08-17T19:56:56.052Z,22.20
2022-08-17T19:59:49.548Z,20.60
2022-08-17T20:03:16.548Z,20.10
2022-08-17T20:06:18.328Z,18.50
2022-08-17T20:09:22.507Z,20.20
2022-08-17T20:12:11.608Z,19.20
2022-08-17T20:15:00.351Z,21.00
2022-08-17T20:17:46.471Z,19.90
2022-08-17T20:20:59.255Z,19.20
2022-08-17T20:23:59.674Z,19.90
2022-08-17T20:26:55.454Z,18.10
2022-08-17T20:29:55.315Z,18.00
2022-08-17T20:32:55.752Z,17.80
2022-08-17T20:35:39.377Z,17.70
2022-08-17T20:38:50.558Z,17.30
2022-08-17T20:42:03.239Z,16.60
2022-08-17T20:44:46.413Z,17.00
2022-08-17T20:48:00.799Z,16.00
2022-08-17T20:51:02.465Z,16.20
2022-08-17T20:53:47.487Z,15.00
2022-08-17T20:56:44.742Z,16.30
2022-08-17T20:59:27.867Z,15.60
2022-08-17T21:02:19.386Z,16.10
2022-08-17T21:05:07.315Z,19.20
2022-08-17T21:07:56.401Z,17.20
2022-08-17T21:10:40.686Z,15.90
2022-08-17T21:13:46.705Z,15.80
2022-08-17T21:16:36.485Z,16.00
2022-08-17T21:19:54.176Z,21.80
2022-08-17T21:22:55.112Z,21.70
2022-08-17T21:26:14.537Z,22.30
2022-08-17T21:29:32.505Z,28.20
2022-08-17T21:32:24.348Z,17.40
2022-08-17T21:35:07.126Z,22.10
2022-08-17T21:37:53.269Z,20.30
2022-08-17T21:40:35.421Z,20.80
2022-08-17T21:43:29.606Z,17.20
2022-08-17T21:46:27.526Z,18.00
2022-08-17T21:49:14.260Z,16.80
2022-08-17T21:51:59.461Z,17.40
2022-08-17T21:54:49.625Z,17.40
2022-08-17T21:57:35.103Z,17.60
2022-08-17T22:00:29.312Z,16.80
2022-08-17T22:03:24.877Z,15.90
2022-08-17T22:06:24.202Z,16.20
2022-08-17T22:09:26.098Z,16.40
2022-08-17T22:12:11.402Z,15.10
2022-08-17T22:15:06.379Z,15.80
2022-08-17T22:17:48.888Z,15.40
2022-08-17T22:20:31.090Z,15.40
2022-08-17T22:23:33.056Z,16.70
2022-08-17T22:26:18.074Z,16.90
2022-08-17T22:29:00.227Z,17.50
2022-08-17T22:32:08.544Z,17.60
2022-08-17T22:35:16.345Z,17.10
2022-08-17T22:38:18.056Z,18.20
2022-08-17T22:41:26.114Z,19.10
2022-08-17T22:44:28.363Z,19.50
2022-08-17T22:47:21.254Z,18.30
2022-08-17T22:50:12.150Z,18.10
2022-08-17T22:53:20.571Z,18.80
2022-08-17T22:56:22.223Z,18.20
2022-08-17T22:59:20.606Z,18.60
2022-08-17T23:02:24.112Z,18.50
2022-08-17T23:05:10.310Z,19.10
2022-08-17T23:07:53.213Z,19.70
2022-08-17T23:10:36.193Z,18.40
2022-08-17T23:13:18.553Z,18.80
2022-08-17T23:16:00.601Z,19.20
2022-08-17T23:18:42.549Z,19.30
2022-08-17T23:21:29.769Z,19.20
2022-08-17T23:24:17.123Z,19.60
2022-08-17T23:26:59.238Z,20.20
2022-08-17T23:29:42.421Z,21.50
2022-08-17T23:32:25.033Z,19.90
2022-08-17T23:35:09.417Z,20.30
2022-08-17T23:37:52.397Z,20.50
2022-08-17T23:40:34.715Z,20.30
2022-08-17T23:43:25.203Z,22.20
2022-08-17T23:46:07.823Z,22.00
2022-08-17T23:48:53.713Z,22.70
2022-08-17T23:51:42.696Z,20.80
2022-08-17T23:54:27.601Z,20.90
2022-08-17T23:57:15.934Z,19.60
2022-08-17T23:59:57.990Z,21.10
